Time,TemperatureF,DewpointF,PressureIn,WindDirection,WindDirectionDegrees,WindSpeedMPH,WindSpeedGustMPH,Humidity,HourlyPrecipIn,Conditions,Clouds,dailyrainin,SoftwareType,DateUTC
2013-06-21 00:01:00,75.4,67.0,29.15,North,0,0.0,0.0,75,0.00,,,0.00,WUHU216HW,2013-06-21 05:01:00,
2013-06-21 00:06:00,75.4,67.0,29.16,North,0,0.0,0.0,75,0.00,,,0.00,WUHU216HW,2013-06-21 05:06:00,
2013-06-21 00:11:00,75.4,67.0,29.16,North,0,0.0,0.0,75,0.00,,,0.00,WUHU216HW,2013-06-21 05:11:00,
2013-06-21 00:16:00,75.4,67.0,29.17,North,0,0.0,0.0,75,0.00,,,0.00,WUHU216HW,2013-06-21 05:16:00,
2013-06-21 00:21:00,75.6,67.2,29.16,North,0,0.0,0.0,75,0.00,,,0.00,WUHU216HW,2013-06-21 05:21:00,
2013-06-21 00:26:00,75.6,67.2,29.16,North,0,0.0,0.0,75,0.00,,,0.00,WUHU216HW,2013-06-21 05:26:00,
2013-06-21 00:31:00,75.6,66.7,29.16,North,0,0.0,0.0,74,0.00,,,0.00,WUHU216HW,2013-06-21 05:31:00,
2013-06-21 00:36:00,75.8,66.5,29.16,North,0,0.0,0.0,73,0.00,,,0.00,WUHU216HW,2013-06-21 05:36:00,
2013-06-21 00:41:00,76.1,66.1,29.16,North,0,0.0,0.0,71,0.00,,,0.00,WUHU216HW,2013-06-21 05:41:00,
2013-06-21 00:46:00,76.3,66.2,29.15,North,0,0.0,0.0,71,0.00,,,0.00,WUHU216HW,2013-06-21 05:46:00,
2013-06-21 00:51:00,76.5,66.4,29.14,North,0,0.0,0.0,71,0.00,,,0.00,WUHU216HW,2013-06-21 05:51:00,
2013-06-21 00:56:00,76.7,66.2,29.14,North,0,0.0,0.0,70,0.00,,,0.00,WUHU216HW,2013-06-21 05:56:00,
2013-06-21 01:01:00,76.7,66.2,29.13,North,0,0.0,0.0,70,0.00,,,0.00,WUHU216HW,2013-06-21 06:01:00,
2013-06-21 01:06:00,76.7,65.8,29.13,North,0,0.0,0.0,69,0.00,,,0.00,WUHU216HW,2013-06-21 06:06:00,
2013-06-21 01:11:00,76.7,65.3,29.14,North,0,0.0,0.0,68,0.00,,,0.00,WUHU216HW,2013-06-21 06:11:00,
2013-06-21 01:16:00,76.9,65.5,29.15,North,0,0.0,0.0,68,0.00,,,0.00,WUHU216HW,2013-06-21 06:16:00,
2013-06-21 01:21:00,76.9,65.5,29.14,North,0,0.0,0.0,68,0.00,,,0.00,WUHU216HW,2013-06-21 06:21:00,
2013-06-21 01:26:00,77.0,65.7,29.13,North,0,0.0,0.0,68,0.00,,,0.00,WUHU216HW,2013-06-21 06:26:00,
2013-06-21 01:31:00,77.0,65.3,29.11,North,0,0.0,0.0,67,0.00,,,0.00,WUHU216HW,2013-06-21 06:31:00,
2013-06-21 01:36:00,77.4,65.6,29.09,North,0,0.0,0.0,67,0.00,,,0.00,WUHU216HW,2013-06-21 06:36:00,
2013-06-21 01:41:00,77.4,65.2,29.08,North,0,0.0,0.0,66,0.00,,,0.00,WUHU216HW,2013-06-21 06:41:00,
2013-06-21 01:46:00,77.4,65.2,29.08,North,0,0.0,0.0,66,0.00,,,0.00,WUHU216HW,2013-06-21 06:46:00,
2013-06-21 01:51:00,77.6,65.4,29.10,North,0,0.0,0.0,66,0.00,,,0.00,WUHU216HW,2013-06-21 06:51:00,
2013-06-21 01:56:00,77.8,65.5,29.10,North,0,0.0,0.0,66,0.00,,,0.00,WUHU216HW,2013-06-21 06:56:00,
2013-06-21 02:01:00,77.9,65.3,29.10,North,0,0.0,0.0,65,0.00,,,0.00,WUHU216HW,2013-06-21 07:01:00,
2013-06-21 02:06:00,78.1,65.3,29.10,North,0,0.0,0.0,65,0.00,,,0.00,WUHU216HW,2013-06-21 07:06:00,
2013-06-21 02:11:00,78.1,65.3,29.08,North,0,0.0,0.0,65,0.00,,,0.00,WUHU216HW,2013-06-21 07:11:00,
2013-06-21 02:16:00,78.3,65.5,29.08,North,0,0.0,0.0,65,0.00,,,0.00,WUHU216HW,2013-06-21 07:16:00,
2013-06-21 02:21:00,78.1,65.8,29.07,North,0,0.0,0.0,66,0.00,,,0.00,WUHU216HW,2013-06-21 07:21:00,
2013-06-21 02:26:00,77.4,66.5,29.07,North,0,0.0,0.0,69,0.00,,,0.00,WUHU216HW,2013-06-21 07:26:00,
2013-06-21 02:31:00,76.0,67.1,29.07,North,0,0.0,0.0,74,0.00,,,0.00,WUHU216HW,2013-06-21 07:31:00,
2013-06-21 02:36:00,74.3,67.1,29.05,North,0,0.0,0.0,78,0.00,,,0.00,WUHU216HW,2013-06-21 07:36:00,
2013-06-21 02:41:00,73.3,66.8,29.05,North,0,0.0,0.0,80,0.00,,,0.00,WUHU216HW,2013-06-21 07:41:00,
2013-06-21 02:46:00,72.7,66.2,29.06,North,0,0.0,0.0,80,0.00,,,0.00,WUHU216HW,2013-06-21 07:46:00,
2013-06-21 09:01:00,71.1,64.6,29.23,North,0,0.0,0.0,80,0.00,,,0.00,WUHU216HW,2013-06-21 14:01:00,
2013-06-21 09:06:00,71.5,65.0,29.23,North,0,0.0,0.0,80,0.00,,,0.00,WUHU216HW,2013-06-21 14:06:00,
2013-06-21 09:11:00,71.8,65.0,29.24,North,0,0.0,0.0,79,0.00,,,0.00,WUHU216HW,2013-06-21 14:11:00,
2013-06-21 09:16:00,72.0,65.2,29.25,North,0,0.0,0.0,79,0.00,,,0.00,WUHU216HW,2013-06-21 14:16:00,
2013-06-21 09:21:00,72.2,65.0,29.25,North,0,0.0,0.0,78,0.00,,,0.00,WUHU216HW,2013-06-21 14:21:00,
2013-06-21 09:26:00,72.4,65.2,29.25,North,0,0.0,0.0,78,0.00,,,0.00,WUHU216HW,2013-06-21 14:26:00,
2013-06-21 09:31:00,72.5,65.4,29.25,North,0,0.0,0.0,78,0.00,,,0.00,WUHU216HW,2013-06-21 14:31:00,
2013-06-21 09:36:00,73.1,65.9,29.25,North,0,0.0,0.0,78,0.00,,,0.00,WUHU216HW,2013-06-21 14:36:00,
2013-06-21 09:41:00,73.8,66.6,29.25,North,0,0.0,0.0,78,0.00,,,0.00,WUHU216HW,2013-06-21 14:41:00,
2013-06-21 09:46:00,74.5,66.9,29.25,North,0,0.0,0.0,77,0.00,,,0.00,WUHU216HW,2013-06-21 14:46:00,
2013-06-21 09:51:00,74.9,66.4,29.26,North,0,0.0,0.0,75,0.00,,,0.00,WUHU216HW,2013-06-21 14:51:00,
2013-06-21 09:56:00,74.5,66.1,29.25,North,0,0.0,0.0,75,0.00,,,0.00,WUHU216HW,2013-06-21 14:56:00,
2013-06-21 10:01:00,74.3,65.5,29.25,North,0,0.0,0.0,74,0.00,,,0.00,WUHU216HW,2013-06-21 15:01:00,
2013-06-21 10:07:00,74.5,65.7,29.24,North,0,0.0,0.0,74,0.00,,,0.00,WUHU216HW,2013-06-21 15:07:00,
2013-06-21 10:12:00,74.9,66.4,29.23,North,0,0.0,0.0,75,0.00,,,0.00,WUHU216HW,2013-06-21 15:12:00,
2013-06-21 10:17:00,75.8,66.5,29.23,North,0,0.0,0.0,73,0.00,,,0.00,WUHU216HW,2013-06-21 15:17:00,
2013-06-21 10:22:00,76.9,67.6,29.23,North,0,0.0,0.0,73,0.00,,,0.00,WUHU216HW,2013-06-21 15:22:00,
2013-06-21 10:27:00,77.6,67.1,29.23,North,0,0.0,0.0,70,0.00,,,0.00,WUHU216HW,2013-06-21 15:27:00,
2013-06-21 10:32:00,78.1,67.2,29.23,North,0,0.0,0.0,69,0.00,,,0.00,WUHU216HW,2013-06-21 15:32:00,
2013-06-21 10:37:00,78.8,67.3,29.23,North,0,0.0,0.0,68,0.00,,,0.00,WUHU216HW,2013-06-21 15:37:00,
2013-06-21 10:42:00,79.4,67.4,29.23,North,0,0.0,0.0,67,0.00,,,0.00,WUHU216HW,2013-06-21 15:42:00,
2013-06-21 10:47:00,79.9,67.5,29.23,North,0,0.0,0.0,66,0.00,,,0.00,WUHU216HW,2013-06-21 15:47:00,
2013-06-21 10:52:00,79.9,67.1,29.23,North,0,0.0,0.0,65,0.00,,,0.00,WUHU216HW,2013-06-21 15:52:00,
2013-06-21 10:57:00,79.6,66.8,29.24,North,0,0.0,0.0,65,0.00,,,0.00,WUHU216HW,2013-06-21 15:57:00,
2013-06-21 11:02:00,79.6,66.8,29.24,North,0,0.0,0.0,65,0.00,,,0.00,WUHU216HW,2013-06-21 16:02:00,
2013-06-21 11:07:00,79.7,66.9,29.23,North,0,0.0,0.0,65,0.00,,,0.00,WUHU216HW,2013-06-21 16:07:00,
2013-06-21 11:12:00,80.3,67.0,29.23,North,0,0.0,0.0,64,0.00,,,0.00,WUHU216HW,2013-06-21 16:12:00,
2013-06-21 11:17:00,81.0,67.2,29.23,North,0,0.0,0.0,63,0.00,,,0.00,WUHU216HW,2013-06-21 16:17:00,
2013-06-21 11:22:00,81.4,66.6,29.23,North,0,0.0,0.0,61,0.00,,,0.00,WUHU216HW,2013-06-21 16:22:00,
2013-06-21 11:27:00,81.4,65.6,29.22,North,0,0.0,0.0,59,0.00,,,0.00,WUHU216HW,2013-06-21 16:27:00,
2013-06-21 11:32:00,80.8,65.7,29.22,North,0,0.0,0.0,60,0.00,,,0.00,WUHU216HW,2013-06-21 16:32:00,
2013-06-21 11:37:00,80.8,66.2,29.23,North,0,0.0,0.0,61,0.00,,,0.00,WUHU216HW,2013-06-21 16:37:00,
2013-06-21 11:42:00,81.0,64.8,29.23,North,0,0.0,0.0,58,0.00,,,0.00,WUHU216HW,2013-06-21 16:42:00,
2013-06-21 11:47:00,79.6,64.0,29.22,North,0,0.0,0.0,59,0.00,,,0.00,WUHU216HW,2013-06-21 16:47:00,
2013-06-21 11:52:00,79.6,65.4,29.23,North,0,0.0,0.0,62,0.00,,,0.00,WUHU216HW,2013-06-21 16:52:00,
2013-06-21 11:58:00,79.9,65.4,29.23,North,0,0.0,0.0,61,0.00,,,0.00,WUHU216HW,2013-06-21 16:58:00,
2013-06-21 12:03:00,80.5,65.8,29.23,North,0,0.0,0.0,61,0.00,,,0.00,WUHU216HW,2013-06-21 17:03:00,
2013-06-21 12:08:00,80.1,65.5,29.23,North,0,0.0,0.0,61,0.00,,,0.00,WUHU216HW,2013-06-21 17:08:00,
2013-06-21 12:13:00,79.4,65.3,29.23,North,0,0.0,0.0,62,0.00,,,0.00,WUHU216HW,2013-06-21 17:13:00,
2013-06-21 12:18:00,79.9,64.9,29.23,North,0,0.0,0.0,60,0.00,,,0.00,WUHU216HW,2013-06-21 17:18:00,
2013-06-21 12:23:00,79.6,65.0,29.23,North,0,0.0,0.0,61,0.00,,,0.00,WUHU216HW,2013-06-21 17:23:00,
2013-06-21 12:28:00,79.4,65.3,29.23,North,0,0.0,0.0,62,0.00,,,0.00,WUHU216HW,2013-06-21 17:28:00,
2013-06-21 12:34:00,78.8,64.8,29.23,North,0,0.0,0.0,62,0.00,,,0.00,WUHU216HW,2013-06-21 17:34:00,
2013-06-21 12:39:00,79.2,64.6,29.23,North,0,0.0,0.0,61,0.00,,,0.00,WUHU216HW,2013-06-21 17:39:00,
2013-06-21 12:45:00,78.7,64.6,29.23,North,0,0.0,0.0,62,0.00,,,0.00,WUHU216HW,2013-06-21 17:45:00,
2013-06-21 12:46:00,78.7,64.6,29.23,North,0,0.0,0.0,62,0.00,,,0.00,WUHU216HW,2013-06-21 17:46:00,
2013-06-21 12:51:00,79.2,65.5,29.23,North,0,0.0,0.0,63,0.00,,,0.00,WUHU216HW,2013-06-21 17:51:00,
2013-06-21 12:56:00,79.9,65.4,29.23,North,0,0.0,0.0,61,0.00,,,0.00,WUHU216HW,2013-06-21 17:56:00,
2013-06-21 13:02:00,78.8,63.9,29.23,North,0,0.0,0.0,60,0.00,,,0.00,WUHU216HW,2013-06-21 18:02:00,
2013-06-21 13:06:00,78.8,64.8,29.23,North,0,0.0,0.0,62,0.00,,,0.00,WUHU216HW,2013-06-21 18:06:00,
2013-06-21 13:12:00,78.7,64.6,29.23,North,0,0.0,0.0,62,0.00,,,0.00,WUHU216HW,2013-06-21 18:12:00,
2013-06-21 13:17:00,79.4,65.7,29.24,North,0,0.0,0.0,63,0.00,,,0.00,WUHU216HW,2013-06-21 18:17:00,
2013-06-21 13:19:00,79.6,65.4,29.24,North,0,0.0,0.0,62,0.00,,,0.00,WUHU216HW,2013-06-21 18:19:00,
2013-06-21 13:22:00,79.6,65.4,29.24,North,0,0.0,0.0,62,0.00,,,0.00,WUHU216HW,2013-06-21 18:22:00,
2013-06-21 13:23:00,79.6,65.4,29.24,North,0,0.0,0.0,62,0.00,,,0.00,WUHU216HW,2013-06-21 18:23:00,
2013-06-21 13:24:00,79.6,65.4,29.24,North,0,0.0,0.0,62,0.00,,,0.00,WUHU216HW,2013-06-21 18:24:00,
2013-06-21 13:29:00,79.6,65.4,29.24,North,0,0.0,0.0,62,0.00,,,0.00,WUHU216HW,2013-06-21 18:29:00,
2013-06-21 13:50:00,80.1,65.9,29.24,North,0,0.0,0.0,62,0.00,,,0.00,WUHU216HW,2013-06-21 18:50:00,
2013-06-21 13:55:00,80.6,66.0,29.24,North,0,0.0,0.0,61,0.00,,,0.00,WUHU216HW,2013-06-21 18:55:00,
2013-06-21 14:00:00,80.6,66.0,29.24,North,0,0.0,0.0,61,0.00,,,0.00,WUHU216HW,2013-06-21 19:00:00,
2013-06-21 14:06:00,80.1,65.1,29.23,North,0,0.0,0.0,60,0.00,,,0.00,WUHU216HW,2013-06-21 19:06:00,
2013-06-21 14:11:00,79.9,66.3,29.24,North,0,0.0,0.0,63,0.00,,,0.00,WUHU216HW,2013-06-21 19:11:00,
2013-06-21 14:16:00,80.6,66.0,29.24,North,0,0.0,0.0,61,0.00,,,0.00,WUHU216HW,2013-06-21 19:16:00,
2013-06-21 14:20:00,80.6,66.4,29.23,North,0,0.0,0.0,62,0.00,,,0.00,WUHU216HW,2013-06-21 19:20:00,
2013-06-21 14:25:00,80.8,66.6,29.23,North,0,0.0,0.0,62,0.00,,,0.00,WUHU216HW,2013-06-21 19:25:00,
2013-06-21 14:30:00,80.8,66.6,29.23,North,0,0.0,0.0,62,0.00,,,0.00,WUHU216HW,2013-06-21 19:30:00,
2013-06-21 14:56:00,79.7,66.1,29.23,North,0,0.0,0.0,63,0.00,,,0.00,WUHU216HW,2013-06-21 19:56:00,
2013-06-21 15:01:00,80.3,66.1,29.23,North,0,0.0,0.0,62,0.00,,,0.00,WUHU216HW,2013-06-21 20:01:00,
2013-06-21 15:04:00,80.3,66.1,29.23,North,0,0.0,0.0,62,0.00,,,0.00,WUHU216HW,2013-06-21 20:04:00,
2013-06-21 15:08:00,80.3,66.5,29.23,North,0,0.0,0.0,63,0.00,,,0.00,WUHU216HW,2013-06-21 20:08:00,
2013-06-21 15:11:00,80.1,65.9,29.23,North,0,0.0,0.0,62,0.00,,,0.00,WUHU216HW,2013-06-21 20:11:00,
2013-06-21 15:14:00,79.9,65.8,29.23,North,0,0.0,0.0,62,0.00,,,0.00,WUHU216HW,2013-06-21 20:14:00,
2013-06-21 15:19:00,80.1,66.8,29.23,North,0,0.0,0.0,64,0.00,,,0.00,WUHU216HW,2013-06-21 20:19:00,
2013-06-21 15:24:00,80.8,67.1,29.23,North,0,0.0,0.0,63,0.00,,,0.00,WUHU216HW,2013-06-21 20:24:00,
2013-06-21 15:26:00,81.4,67.5,29.23,North,0,0.0,0.0,63,0.00,,,0.00,WUHU216HW,2013-06-21 20:26:00,
2013-06-21 15:29:00,81.4,67.5,29.23,North,0,0.0,0.0,63,0.00,,,0.00,WUHU216HW,2013-06-21 20:29:00,
2013-06-21 15:34:00,81.4,67.5,29.23,North,0,0.0,0.0,63,0.00,,,0.00,WUHU216HW,2013-06-21 20:34:00,
2013-06-21 15:57:00,81.4,66.6,29.23,North,0,0.0,0.0,61,0.00,,,0.00,WUHU216HW,2013-06-21 20:57:00,
2013-06-21 16:02:00,82.1,66.3,29.23,North,0,0.0,0.0,59,0.00,,,0.00,WUHU216HW,2013-06-21 21:02:00,
2013-06-21 16:03:00,81.9,66.7,29.23,North,0,0.0,0.0,60,0.00,,,0.00,WUHU216HW,2013-06-21 21:03:00,
2013-06-21 16:04:00,82.1,66.8,29.23,North,0,0.0,0.0,60,0.00,,,0.00,WUHU216HW,2013-06-21 21:04:00,
2013-06-21 16:09:00,82.1,66.8,29.22,North,0,0.0,0.0,60,0.00,,,0.00,WUHU216HW,2013-06-21 21:09:00,
2013-06-21 16:14:00,82.4,67.1,29.22,North,0,0.0,0.0,60,0.00,,,0.00,WUHU216HW,2013-06-21 21:14:00,
2013-06-21 16:19:00,83.0,67.1,29.22,North,0,0.0,0.0,59,0.00,,,0.00,WUHU216HW,2013-06-21 21:19:00,
2013-06-21 16:24:00,83.3,68.5,29.21,North,0,0.0,0.0,61,0.00,,,0.00,WUHU216HW,2013-06-21 21:24:00,
2013-06-21 16:29:00,82.4,66.6,29.21,North,0,0.0,0.0,59,0.00,,,0.00,WUHU216HW,2013-06-21 21:29:00,
2013-06-21 16:34:00,81.0,66.8,29.21,North,0,0.0,0.0,62,0.00,,,0.00,WUHU216HW,2013-06-21 21:34:00,
2013-06-21 16:39:00,80.6,66.9,29.21,North,0,0.0,0.0,63,0.00,,,0.00,WUHU216HW,2013-06-21 21:39:00,
2013-06-21 16:44:00,80.5,66.7,29.21,North,0,0.0,0.0,63,0.00,,,0.00,WUHU216HW,2013-06-21 21:44:00,
2013-06-21 16:49:00,80.3,66.5,29.21,North,0,0.0,0.0,63,0.00,,,0.00,WUHU216HW,2013-06-21 21:49:00,
2013-06-21 16:54:00,80.1,66.3,29.21,North,0,0.0,0.0,63,0.00,,,0.00,WUHU216HW,2013-06-21 21:54:00,
2013-06-21 16:59:00,79.9,66.3,29.22,North,0,0.0,0.0,63,0.00,,,0.00,WUHU216HW,2013-06-21 21:59:00,
2013-06-21 17:04:00,79.9,66.6,29.22,North,0,0.0,0.0,64,0.00,,,0.00,WUHU216HW,2013-06-21 22:04:00,
2013-06-21 17:09:00,79.6,66.8,29.21,North,0,0.0,0.0,65,0.00,,,0.00,WUHU216HW,2013-06-21 22:09:00,
2013-06-21 17:14:00,79.6,66.3,29.22,North,0,0.0,0.0,64,0.00,,,0.00,WUHU216HW,2013-06-21 22:14:00,
2013-06-21 17:19:00,79.7,66.5,29.22,North,0,0.0,0.0,64,0.00,,,0.00,WUHU216HW,2013-06-21 22:19:00,
2013-06-21 17:24:00,79.9,66.6,29.22,North,0,0.0,0.0,64,0.00,,,0.00,WUHU216HW,2013-06-21 22:24:00,
2013-06-21 17:29:00,79.6,66.3,29.22,North,0,0.0,0.0,64,0.00,,,0.00,WUHU216HW,2013-06-21 22:29:00,
2013-06-21 17:34:00,79.4,66.2,29.22,North,0,0.0,0.0,64,0.00,,,0.00,WUHU216HW,2013-06-21 22:34:00,
2013-06-21 17:39:00,79.2,66.4,29.23,North,0,0.0,0.0,65,0.00,,,0.00,WUHU216HW,2013-06-21 22:39:00,
2013-06-21 17:44:00,79.4,66.6,29.23,North,0,0.0,0.0,65,0.00,,,0.00,WUHU216HW,2013-06-21 22:44:00,
2013-06-21 17:49:00,79.6,66.8,29.24,North,0,0.0,0.0,65,0.00,,,0.00,WUHU216HW,2013-06-21 22:49:00,
2013-06-21 17:54:00,79.6,66.8,29.24,North,0,0.0,0.0,65,0.00,,,0.00,WUHU216HW,2013-06-21 22:54:00,
2013-06-21 17:59:00,79.7,66.9,29.25,North,0,0.0,0.0,65,0.00,,,0.00,WUHU216HW,2013-06-21 22:59:00,
2013-06-21 18:04:00,79.7,67.3,29.24,North,0,0.0,0.0,66,0.00,,,0.00,WUHU216HW,2013-06-21 23:04:00,
2013-06-21 18:09:00,79.2,66.4,29.24,North,0,0.0,0.0,65,0.00,,,0.00,WUHU216HW,2013-06-21 23:09:00,
2013-06-21 18:14:00,78.8,66.5,29.24,North,0,0.0,0.0,66,0.00,,,0.00,WUHU216HW,2013-06-21 23:14:00,
2013-06-21 18:19:00,78.5,66.6,29.24,North,0,0.0,0.0,67,0.00,,,0.00,WUHU216HW,2013-06-21 23:19:00,
2013-06-21 18:24:00,78.1,66.2,29.23,North,0,0.0,0.0,67,0.00,,,0.00,WUHU216HW,2013-06-21 23:24:00,
2013-06-21 18:29:00,78.1,66.2,29.23,North,0,0.0,0.0,67,0.00,,,0.00,WUHU216HW,2013-06-21 23:29:00,
2013-06-21 18:34:00,78.1,66.2,29.25,North,0,0.0,0.0,67,0.00,,,0.00,WUHU216HW,2013-06-21 23:34:00,
2013-06-21 18:39:00,78.1,66.2,29.27,North,0,0.0,0.0,67,0.00,,,0.00,WUHU216HW,2013-06-21 23:39:00,
2013-06-21 18:44:00,78.1,65.8,29.28,North,0,0.0,0.0,66,0.00,,,0.00,WUHU216HW,2013-06-21 23:44:00,
2013-06-21 18:49:00,78.1,65.8,29.29,North,0,0.0,0.0,66,0.00,,,0.00,WUHU216HW,2013-06-21 23:49:00,
2013-06-21 18:54:00,77.8,65.9,29.29,North,0,0.0,0.0,67,0.00,,,0.00,WUHU216HW,2013-06-21 23:54:00,
2013-06-21 18:59:00,77.4,66.1,29.28,North,0,0.0,0.0,68,0.00,,,0.00,WUHU216HW,2013-06-21 23:59:00,
2013-06-21 19:04:00,77.2,65.9,29.29,North,0,0.0,0.0,68,0.00,,,0.00,WUHU216HW,2013-06-22 00:04:00,
2013-06-21 19:09:00,77.0,66.2,29.30,North,0,0.0,0.0,69,0.00,,,0.00,WUHU216HW,2013-06-22 00:09:00,
2013-06-21 19:14:00,77.0,66.2,29.31,North,0,0.0,0.0,69,0.00,,,0.00,WUHU216HW,2013-06-22 00:14:00,
2013-06-21 19:19:00,76.9,66.0,29.32,North,0,0.0,0.0,69,0.00,,,0.00,WUHU216HW,2013-06-22 00:19:00,
2013-06-21 19:24:00,76.9,66.0,29.32,North,0,0.0,0.0,69,0.00,,,0.00,WUHU216HW,2013-06-22 00:24:00,
2013-06-21 19:29:00,76.7,66.2,29.34,North,0,0.0,0.0,70,0.00,,,0.00,WUHU216HW,2013-06-22 00:29:00,
2013-06-21 19:34:00,76.5,66.1,29.34,North,0,0.0,0.0,70,0.00,,,0.00,WUHU216HW,2013-06-22 00:34:00,
2013-06-21 19:39:00,76.3,66.2,29.36,North,0,0.0,0.0,71,0.00,,,0.00,WUHU216HW,2013-06-22 00:39:00,
2013-06-21 19:44:00,76.3,65.9,29.36,North,0,0.0,0.0,70,0.00,,,0.00,WUHU216HW,2013-06-22 00:44:00,
2013-06-21 19:49:00,76.3,65.9,29.36,North,0,0.0,0.0,70,0.00,,,0.00,WUHU216HW,2013-06-22 00:49:00,
2013-06-21 19:54:00,75.6,65.5,29.36,North,0,0.0,0.0,71,0.00,,,0.00,WUHU216HW,2013-06-22 00:54:00,
2013-06-21 19:59:00,74.5,65.4,29.34,North,0,0.0,0.0,73,0.00,,,0.00,WUHU216HW,2013-06-22 00:59:00,
2013-06-21 20:04:00,72.5,64.9,29.32,North,0,0.0,0.0,77,0.00,,,0.00,WUHU216HW,2013-06-22 01:04:00,
2013-06-21 20:09:00,70.9,64.4,29.30,North,0,0.0,0.0,80,0.00,,,0.00,WUHU216HW,2013-06-22 01:09:00,
2013-06-21 20:14:00,70.4,63.9,29.31,North,0,0.0,0.0,80,0.00,,,0.00,WUHU216HW,2013-06-22 01:14:00,
2013-06-21 20:19:00,70.2,64.1,29.31,North,0,0.0,0.0,81,0.00,,,0.00,WUHU216HW,2013-06-22 01:19:00,
2013-06-21 20:24:00,70.2,65.4,29.30,North,0,0.0,0.0,85,0.00,,,0.00,WUHU216HW,2013-06-22 01:24:00,
2013-06-21 20:29:00,70.0,65.6,29.29,North,0,0.0,0.0,86,0.00,,,0.00,WUHU216HW,2013-06-22 01:29:00,
2013-06-21 20:34:00,69.8,65.4,29.29,North,0,0.0,0.0,86,0.00,,,0.00,WUHU216HW,2013-06-22 01:34:00,
2013-06-21 20:39:00,69.8,65.4,29.27,North,0,0.0,0.0,86,0.00,,,0.00,WUHU216HW,2013-06-22 01:39:00,
2013-06-21 20:44:00,69.8,66.1,29.26,North,0,0.0,0.0,88,0.00,,,0.00,WUHU216HW,2013-06-22 01:44:00,
2013-06-21 20:49:00,69.8,65.8,29.26,North,0,0.0,0.0,87,0.00,,,0.00,WUHU216HW,2013-06-22 01:49:00,
2013-06-21 20:54:00,69.8,65.8,29.26,North,0,0.0,0.0,87,0.00,,,0.00,WUHU216HW,2013-06-22 01:54:00,
2013-06-21 20:59:00,70.0,66.2,29.26,North,0,0.0,0.0,88,0.00,,,0.00,WUHU216HW,2013-06-22 01:59:00,
2013-06-21 21:04:00,70.0,66.0,29.26,North,0,0.0,0.0,87,0.00,,,0.00,WUHU216HW,2013-06-22 02:04:00,
2013-06-21 21:09:00,70.0,66.2,29.26,North,0,0.0,0.0,88,0.00,,,0.00,WUHU216HW,2013-06-22 02:09:00,
2013-06-21 21:14:00,69.8,65.8,29.25,North,0,0.0,0.0,87,0.00,,,0.00,WUHU216HW,2013-06-22 02:14:00,
2013-06-21 21:19:00,69.7,65.6,29.24,North,0,0.0,0.0,87,0.00,,,0.00,WUHU216HW,2013-06-22 02:19:00,
2013-06-21 21:24:00,69.5,65.4,29.25,North,0,0.0,0.0,87,0.00,,,0.00,WUHU216HW,2013-06-22 02:24:00,
2013-06-21 21:29:00,69.5,65.7,29.24,North,0,0.0,0.0,88,0.00,,,0.00,WUHU216HW,2013-06-22 02:29:00,
2013-06-21 21:34:00,69.3,65.6,29.24,North,0,0.0,0.0,88,0.00,,,0.00,WUHU216HW,2013-06-22 02:34:00,
2013-06-21 21:39:00,69.3,65.6,29.24,North,0,0.0,0.0,88,0.00,,,0.00,WUHU216HW,2013-06-22 02:39:00,
2013-06-21 21:44:00,69.1,65.4,29.24,North,0,0.0,0.0,88,0.00,,,0.00,WUHU216HW,2013-06-22 02:44:00,
2013-06-21 21:49:00,69.1,65.7,29.23,North,0,0.0,0.0,89,0.00,,,0.00,WUHU216HW,2013-06-22 02:49:00,
2013-06-21 21:54:00,69.1,65.4,29.24,North,0,0.0,0.0,88,0.00,,,0.00,WUHU216HW,2013-06-22 02:54:00,
2013-06-21 21:59:00,68.9,65.3,29.24,North,0,0.0,0.0,88,0.00,,,0.00,WUHU216HW,2013-06-22 02:59:00,
2013-06-21 22:04:00,68.9,65.3,29.24,North,0,0.0,0.0,88,0.00,,,0.00,WUHU216HW,2013-06-22 03:04:00,
2013-06-21 22:09:00,68.9,65.3,29.25,North,0,0.0,0.0,88,0.00,,,0.00,WUHU216HW,2013-06-22 03:09:00,
2013-06-21 22:14:00,68.9,65.3,29.25,North,0,0.0,0.0,88,0.00,,,0.00,WUHU216HW,2013-06-22 03:14:00,
2013-06-21 22:19:00,68.9,65.5,29.22,North,0,0.0,0.0,89,0.00,,,0.00,WUHU216HW,2013-06-22 03:19:00,
2013-06-21 22:24:00,68.8,65.3,29.21,North,0,0.0,0.0,89,0.00,,,0.00,WUHU216HW,2013-06-22 03:24:00,
2013-06-21 22:29:00,68.8,65.3,29.20,North,0,0.0,0.0,89,0.00,,,0.00,WUHU216HW,2013-06-22 03:29:00,
2013-06-21 22:34:00,68.6,65.2,29.20,North,0,0.0,0.0,89,0.00,,,0.00,WUHU216HW,2013-06-22 03:34:00,
2013-06-21 22:39:00,68.4,65.3,29.19,North,0,0.0,0.0,90,0.00,,,0.00,WUHU216HW,2013-06-22 03:39:00,
2013-06-21 22:44:00,68.2,64.8,29.18,North,0,0.0,0.0,89,0.00,,,0.00,WUHU216HW,2013-06-22 03:44:00,
2013-06-21 22:49:00,68.2,65.2,29.18,North,0,0.0,0.0,90,0.00,,,0.00,WUHU216HW,2013-06-22 03:49:00,
2013-06-21 22:54:00,68.2,65.2,29.19,North,0,0.0,0.0,90,0.00,,,0.00,WUHU216HW,2013-06-22 03:54:00,
2013-06-21 22:59:00,68.2,65.2,29.18,North,0,0.0,0.0,90,0.00,,,0.00,WUHU216HW,2013-06-22 03:59:00,
2013-06-21 23:01:00,68.2,65.2,29.18,North,0,0.0,0.0,90,0.00,,,0.00,WUHU216HW,2013-06-22 04:01:00,
2013-06-21 23:06:00,68.0,65.0,29.17,North,0,0.0,0.0,90,0.00,,,0.00,WUHU216HW,2013-06-22 04:06:00,
2013-06-21 23:11:00,68.0,65.3,29.17,North,0,0.0,0.0,91,0.00,,,0.00,WUHU216HW,2013-06-22 04:11:00,
2013-06-21 23:16:00,68.0,65.0,29.20,North,0,0.0,0.0,90,0.00,,,0.00,WUHU216HW,2013-06-22 04:16:00,
2013-06-21 23:21:00,68.0,65.0,29.21,North,0,0.0,0.0,90,0.00,,,0.00,WUHU216HW,2013-06-22 04:21:00,
2013-06-21 23:26:00,68.0,64.6,29.21,North,0,0.0,0.0,89,0.00,,,0.00,WUHU216HW,2013-06-22 04:26:00,
2013-06-21 23:31:00,68.2,65.2,29.21,North,0,0.0,0.0,90,0.00,,,0.00,WUHU216HW,2013-06-22 04:31:00,
2013-06-21 23:36:00,68.4,65.0,29.21,North,0,0.0,0.0,89,0.00,,,0.00,WUHU216HW,2013-06-22 04:36:00,
2013-06-21 23:41:00,68.4,65.0,29.21,North,0,0.0,0.0,89,0.00,,,0.00,WUHU216HW,2013-06-22 04:41:00,
2013-06-21 23:46:00,68.6,65.2,29.20,North,0,0.0,0.0,89,0.00,,,0.00,WUHU216HW,2013-06-22 04:46:00,
2013-06-21 23:51:00,68.6,65.2,29.18,North,0,0.0,0.0,89,0.00,,,0.00,WUHU216HW,2013-06-22 04:51:00,
2013-06-21 23:56:00,68.4,65.0,29.18,North,0,0.0,0.0,89,0.00,,,0.00,WUHU216HW,2013-06-22 04:56:00,